createdAt,value
2022-08-17T00:09:57.208Z,19.20
2022-08-17T00:14:11.426Z,20.50
2022-08-17T00:19:01.221Z,20.10
2022-08-17T00:22:49.629Z,23.00
2022-08-17T00:47:34.003Z,18.10
2022-08-17T00:51:42.364Z,18.30
2022-08-17T00:55:50.836Z,21.90
2022-08-17T00:59:38.683Z,21.90
2022-08-17T01:16:00.448Z,15.90
2022-08-17T01:20:11.603Z,19.80
2022-08-17T01:40:57.635Z,18.80
2022-08-17T01:45:05.959Z,18.00
2022-08-17T01:49:14.271Z,18.80
2022-08-17T01:53:22.385Z,19.70
2022-08-17T02:09:55.376Z,20.30
2022-08-17T02:14:04.394Z,17.80
2022-08-17T02:34:21.425Z,44.80
2022-08-17T02:38:29.655Z,34.50
2022-08-17T02:55:08.040Z,36.20
2022-08-17T02:59:16.283Z,32.00
2022-08-17T03:03:25.280Z,27.00
2022-08-17T03:23:54.624Z,25.00
2022-08-17T03:28:04.513Z,25.40
2022-08-17T03:48:40.582Z,28.00
2022-08-17T03:52:51.707Z,23.40
2022-08-17T03:57:02.912Z,22.00
2022-08-17T04:13:24.200Z,24.10
2022-08-17T04:17:34.032Z,22.40
2022-08-17T04:38:27.083Z,18.80
2022-08-17T04:42:35.205Z,21.00
2022-08-17T04:46:43.592Z,23.00
2022-08-17T04:50:32.772Z,23.00
2022-08-17T05:06:58.120Z,19.00
2022-08-17T05:27:07.048Z,24.70
2022-08-17T05:31:16.342Z,23.40
2022-08-17T05:47:37.706Z,21.60
2022-08-17T05:51:45.900Z,23.30
2022-08-17T05:56:29.208Z,24.00
2022-08-17T06:01:05.310Z,21.30
2022-08-17T06:05:19.554Z,22.00
2022-08-17T06:09:48.329Z,28.30
2022-08-17T06:13:56.167Z,24.20
2022-08-17T07:08:44.070Z,18.50
2022-08-17T07:13:13.573Z,20.10
2022-08-17T07:17:19.163Z,16.50
2022-08-17T07:21:27.758Z,20.90
2022-08-17T07:25:42.021Z,19.70
2022-08-17T07:29:50.240Z,17.90
2022-08-17T07:33:20.528Z,19.40
2022-08-17T07:37:28.843Z,16.40
2022-08-17T07:41:59.261Z,16.40
2022-08-17T07:45:54.604Z,17.20
2022-08-17T07:50:08.655Z,17.50
2022-08-17T07:54:12.889Z,16.40
2022-08-17T07:58:05.339Z,18.50
2022-08-17T08:02:37.659Z,17.50
2022-08-17T08:06:40.313Z,17.50
2022-08-17T08:11:06.095Z,16.60
2022-08-17T08:19:32.504Z,16.40
2022-08-17T08:23:46.408Z,13.80
2022-08-17T08:28:06.610Z,13.90
2022-08-17T08:32:21.326Z,13.50
2022-08-17T08:37:15.790Z,12.60
2022-08-17T08:41:10.232Z,12.00
2022-08-17T08:45:46.131Z,17.90
2022-08-17T08:50:04.478Z,15.40
2022-08-17T08:54:09.945Z,18.80
2022-08-17T08:58:48.375Z,14.00
2022-08-17T09:03:01.699Z,13.70
2022-08-17T09:07:07.569Z,15.00
2022-08-17T09:11:23.176Z,12.60
2022-08-17T09:15:46.376Z,15.40
2022-08-17T09:19:54.977Z,11.50
2022-08-17T09:23:59.642Z,11.90
2022-08-17T09:28:29.130Z,13.10
2022-08-17T09:32:25.926Z,12.60
2022-08-17T09:36:31.153Z,13.90
2022-08-17T09:39:16.083Z,13.90
2022-08-17T09:42:00.784Z,11.60
2022-08-17T09:45:54.878Z,13.70
2022-08-17T09:49:03.675Z,13.20
2022-08-17T09:52:08.588Z,12.20
2022-08-17T09:54:40.522Z,12.10
2022-08-17T09:57:58.082Z,13.50
2022-08-17T10:01:16.296Z,13.30
2022-08-17T10:04:59.486Z,13.30
2022-08-17T10:08:15.041Z,12.70
2022-08-17T10:12:38.197Z,11.00
2022-08-17T10:16:38.580Z,11.70
2022-08-17T10:19:44.181Z,14.20
2022-08-17T10:22:44.178Z,11.80
2022-08-17T10:25:53.640Z,11.00
2022-08-17T10:29:14.712Z,12.30
2022-08-17T10:32:15.003Z,10.80
2022-08-17T10:35:09.412Z,12.30
2022-08-17T10:37:48.602Z,14.90
2022-08-17T10:40:58.307Z,11.90
2022-08-17T10:44:38.044Z,10.70
2022-08-17T10:48:27.854Z,10.30
2022-08-17T10:51:39.390Z,12.80
2022-08-17T10:54:34.174Z,9.90
2022-08-17T10:58:27.752Z,12.80
2022-08-17T11:01:14.792Z,10.90
2022-08-17T11:04:04.617Z,12.60
2022-08-17T11:06:42.317Z,10.10
2022-08-17T11:10:23.189Z,10.30
2022-08-17T11:13:49.732Z,13.30
2022-08-17T11:17:03.628Z,12.30
2022-08-17T11:20:41.545Z,10.40
2022-08-17T11:24:33.732Z,10.70
2022-08-17T11:29:02.805Z,10.80
2022-08-17T11:33:21.315Z,12.10
2022-08-17T11:37:15.499Z,9.00
2022-08-17T11:40:51.357Z,9.40
2022-08-17T11:44:40.387Z,10.60
2022-08-17T11:49:11.200Z,10.30
2022-08-17T11:53:34.376Z,10.50
2022-08-17T11:58:06.523Z,11.70
2022-08-17T12:02:30.174Z,9.30
2022-08-17T12:06:38.329Z,10.40
2022-08-17T12:10:17.295Z,9.70
2022-08-17T12:13:46.833Z,12.30
2022-08-17T12:17:59.445Z,8.90
2022-08-17T12:22:20.593Z,8.00
2022-08-17T12:26:09.394Z,8.70
2022-08-17T13:52:45.871Z,8.60
2022-08-17T13:55:37.892Z,8.30
2022-08-17T13:59:15.289Z,8.90
2022-08-17T14:02:36.181Z,9.90
2022-08-17T14:05:18.458Z,7.80
2022-08-17T14:09:26.723Z,6.50
2022-08-17T14:13:07.627Z,8.80
2022-08-17T14:29:22.051Z,8.90
2022-08-17T14:32:54.055Z,9.10
2022-08-17T14:37:01.841Z,8.50
2022-08-17T14:57:33.383Z,7.10
2022-08-17T15:01:35.834Z,7.20
2022-08-17T15:21:41.690Z,7.70
2022-08-17T15:25:38.787Z,8.50
2022-08-17T15:28:26.618Z,9.70
2022-08-17T15:32:00.596Z,9.80
2022-08-17T15:35:04.317Z,7.90
2022-08-17T15:37:37.088Z,8.10
2022-08-17T15:40:12.929Z,8.90
2022-08-17T15:43:32.500Z,5.80
2022-08-17T15:46:35.343Z,10.60
2022-08-17T15:50:17.690Z,10.20
2022-08-17T15:53:18.506Z,8.80
2022-08-17T15:56:35.642Z,7.40
2022-08-17T16:03:45.668Z,8.20
2022-08-17T16:05:31.419Z,9.20
2022-08-17T16:15:56.989Z,7.00
2022-08-17T16:19:28.839Z,8.50
2022-08-17T16:22:01.722Z,8.60
2022-08-17T16:24:47.681Z,7.80
2022-08-17T16:28:00.027Z,8.10
2022-08-17T16:30:29.928Z,6.90
2022-08-17T16:33:00.612Z,6.70
2022-08-17T16:35:28.339Z,6.90
2022-08-17T16:37:58.582Z,6.70
2022-08-17T16:40:52.751Z,7.40
2022-08-17T16:43:57.639Z,7.80
2022-08-17T16:47:04.345Z,7.90
2022-08-17T16:51:04.050Z,9.90
2022-08-17T16:55:13.243Z,10.70
2022-08-17T17:56:18.788Z,14.30
2022-08-17T18:00:26.907Z,14.50
2022-08-17T18:04:25.503Z,15.30
2022-08-17T18:08:11.093Z,17.50
2022-08-17T18:19:22.085Z,17.00
2022-08-17T18:22:41.054Z,16.90
2022-08-17T18:26:02.642Z,15.90
2022-08-17T19:38:14.482Z,20.10
2022-08-17T19:41:28.824Z,20.00
2022-08-17T19:44:56.559Z,20.50
2022-08-17T19:49:02.659Z,17.30
2022-08-17T19:52:15.861Z,15.00
2022-08-17T19:56:12.751Z,17.30
2022-08-17T20:00:25.026Z,22.00
2022-08-17T20:04:51.840Z,18.30
2022-08-17T20:08:30.408Z,16.10
2022-08-17T20:12:24.286Z,16.60
2022-08-17T20:16:32.620Z,18.50
2022-08-17T20:20:35.145Z,19.80
2022-08-17T20:25:04.127Z,18.60
2022-08-17T20:29:37.173Z,21.40
2022-08-17T20:34:03.886Z,20.00
2022-08-17T20:42:52.602Z,18.80
2022-08-17T20:47:05.203Z,18.20
2022-08-17T20:51:28.247Z,20.80
2022-08-17T20:55:51.580Z,25.80
2022-08-17T21:00:03.262Z,23.40
2022-08-17T21:04:14.248Z,24.90
2022-08-17T21:08:27.058Z,22.20
2022-08-17T21:12:56.573Z,24.00
2022-08-17T21:17:10.709Z,24.50
2022-08-17T21:21:28.224Z,24.10
2022-08-17T21:25:44.887Z,24.70
2022-08-17T21:30:14.595Z,23.60
2022-08-17T21:34:31.611Z,38.60
2022-08-17T21:38:45.559Z,22.00
2022-08-17T21:42:54.252Z,25.10
2022-08-17T21:47:02.652Z,26.10
2022-08-17T21:51:19.851Z,21.50
2022-08-17T21:55:36.196Z,23.60
2022-08-17T22:00:00.282Z,18.00
2022-08-17T23:23:21.859Z,22.50
2022-08-17T23:27:31.108Z,22.80
2022-08-17T23:31:41.492Z,22.50
2022-08-17T23:35:50.184Z,21.90
2022-08-17T23:48:28.497Z,24.10
2022-08-17T23:52:43.771Z,19.00
2022-08-17T23:56:32.099Z,22.70
